createdAt,value
2019-05-20T00:01:44.963Z,23.17
2019-05-20T00:04:14.444Z,17.40
2019-05-20T00:06:43.812Z,22.80
2019-05-20T00:09:17.707Z,25.53
2019-05-20T00:11:47.727Z,24.33
2019-05-20T00:14:18.741Z,26.03
2019-05-20T00:16:48.020Z,25.10
2019-05-20T00:19:20.495Z,26.20
2019-05-20T00:21:50.430Z,27.33
2019-05-20T00:24:20.098Z,27.67
2019-05-20T00:26:49.865Z,29.23
2019-05-20T00:29:20.587Z,30.40
2019-05-20T00:31:49.823Z,30.57
2019-05-20T00:34:34.133Z,31.00
2019-05-20T00:36:54.508Z,28.87
2019-05-20T00:39:27.145Z,29.50
2019-05-20T00:42:05.351Z,24.30
2019-05-20T00:44:36.935Z,25.50
2019-05-20T00:47:09.882Z,22.77
2019-05-20T00:49:43.031Z,22.30
2019-05-20T00:52:12.315Z,24.00
2019-05-20T00:54:41.465Z,17.50
2019-05-20T00:57:11.000Z,19.90
2019-05-20T00:59:40.318Z,21.07
2019-05-20T01:02:09.599Z,21.63
2019-05-20T01:04:39.210Z,23.10
2019-05-20T01:07:10.566Z,22.00
2019-05-20T01:09:40.095Z,20.23
2019-05-20T01:12:10.478Z,20.43
2019-05-20T01:14:42.492Z,18.60
2019-05-20T01:17:11.900Z,19.77
2019-05-20T01:19:41.108Z,20.60
2019-05-20T01:22:10.906Z,19.90
2019-05-20T01:24:42.394Z,19.57
2019-05-20T01:27:11.710Z,21.17
2019-05-20T01:29:41.014Z,18.77
2019-05-20T01:32:13.212Z,20.07
2019-05-20T01:34:42.491Z,21.10
2019-05-20T01:37:11.877Z,21.43
2019-05-20T01:39:41.071Z,20.10
2019-05-20T01:42:10.283Z,20.33
2019-05-20T01:44:39.885Z,19.27
2019-05-20T01:47:10.633Z,21.20
2019-05-20T01:49:41.891Z,23.07
2019-05-20T01:52:12.811Z,22.00
2019-05-20T01:54:43.173Z,20.93
2019-05-20T01:57:13.619Z,23.13
2019-05-20T01:59:46.299Z,23.50
2019-05-20T02:02:17.567Z,25.87
2019-05-20T02:04:47.179Z,22.67
2019-05-20T02:07:18.646Z,24.30
2019-05-20T02:09:47.930Z,22.13
2019-05-20T02:12:23.922Z,23.80
2019-05-20T02:14:59.021Z,24.67
2019-05-20T02:17:31.135Z,23.07
2019-05-20T02:20:04.809Z,22.13
2019-05-20T02:22:34.081Z,19.93
2019-05-20T02:25:03.272Z,20.60
2019-05-20T02:27:32.610Z,20.90
2019-05-20T02:30:01.930Z,22.97
2019-05-20T02:32:31.229Z,21.53
2019-05-20T02:35:00.579Z,18.93
2019-05-20T02:37:30.125Z,20.03
2019-05-20T02:40:00.995Z,19.57
2019-05-20T02:42:30.565Z,18.53
2019-05-20T02:44:59.951Z,17.40
2019-05-20T02:47:29.430Z,17.60
2019-05-20T02:49:59.253Z,16.30
2019-05-20T02:52:30.235Z,16.70
2019-05-20T02:55:00.507Z,13.30
2019-05-20T02:57:30.777Z,14.13
2019-05-20T03:00:00.269Z,13.17
2019-05-20T03:02:29.439Z,16.53
2019-05-20T03:04:59.128Z,15.57
2019-05-20T03:07:30.796Z,17.83
2019-05-20T03:10:00.188Z,17.50
2019-05-20T03:12:31.114Z,17.40
2019-05-20T03:15:01.211Z,15.87
2019-05-20T03:17:30.647Z,16.80
2019-05-20T03:20:00.168Z,16.33
2019-05-20T03:22:29.516Z,15.77
2019-05-20T03:24:58.950Z,17.27
2019-05-20T03:27:29.515Z,17.60
2019-05-20T03:30:00.130Z,15.73
2019-05-20T03:32:29.322Z,17.17
2019-05-20T03:35:00.873Z,16.80
2019-05-20T03:37:29.758Z,16.87
2019-05-20T03:39:59.165Z,19.17
2019-05-20T03:42:28.380Z,18.50
2019-05-20T03:44:57.611Z,19.07
2019-05-20T03:47:26.773Z,22.33
2019-05-20T03:49:57.098Z,21.00
2019-05-20T03:52:26.393Z,21.30
2019-05-20T03:54:55.665Z,21.73
2019-05-20T03:57:24.893Z,22.03
2019-05-20T03:59:54.462Z,19.33
2019-05-20T04:02:23.916Z,19.33
2019-05-20T04:05:02.185Z,20.37
2019-05-20T04:07:26.386Z,19.27
2019-05-20T04:09:55.633Z,21.13
2019-05-20T04:12:26.348Z,23.03
2019-05-20T04:14:55.597Z,20.80
2019-05-20T04:17:26.024Z,18.10
2019-05-20T04:19:55.175Z,15.77
2019-05-20T04:22:24.670Z,15.70
2019-05-20T04:24:54.239Z,15.53
2019-05-20T04:27:24.682Z,14.03
2019-05-20T04:29:53.840Z,16.60
2019-05-20T04:32:23.841Z,14.77
2019-05-20T04:34:56.764Z,13.80
2019-05-20T04:37:25.905Z,14.63
2019-05-20T04:39:55.174Z,13.50
2019-05-20T04:42:24.431Z,12.90
2019-05-20T04:44:57.258Z,13.87
2019-05-20T04:47:27.066Z,13.43
2019-05-20T04:49:57.659Z,13.87
2019-05-20T04:52:28.553Z,14.53
2019-05-20T04:54:58.299Z,14.03
2019-05-20T04:57:28.574Z,13.73
2019-05-20T04:59:57.758Z,13.67
2019-05-20T05:02:27.002Z,12.33
2019-05-20T05:04:57.954Z,11.97
2019-05-20T05:07:30.284Z,13.07
2019-05-20T05:10:01.225Z,13.17
2019-05-20T05:12:31.655Z,12.77
2019-05-20T05:15:07.310Z,12.23
2019-05-20T05:17:35.141Z,11.03
2019-05-20T05:20:17.590Z,11.97
2019-05-20T05:22:36.839Z,10.87
2019-05-20T05:25:16.269Z,12.47
2019-05-20T05:27:47.107Z,12.10
2019-05-20T05:30:16.489Z,11.10
2019-05-20T05:32:45.703Z,10.03
2019-05-20T05:35:15.755Z,9.00
2019-05-20T05:37:45.129Z,9.13
2019-05-20T05:40:15.268Z,9.80
2019-05-20T05:42:46.113Z,9.87
2019-05-20T05:45:15.800Z,10.53
2019-05-20T05:47:44.977Z,9.80
2019-05-20T05:50:15.002Z,9.43
2019-05-20T05:52:44.489Z,9.60
2019-05-20T05:55:13.759Z,8.90
2019-05-20T05:57:43.836Z,9.43
2019-05-20T06:00:13.034Z,9.63
2019-05-20T06:02:47.535Z,9.73
2019-05-20T06:05:18.503Z,10.90
2019-05-20T06:07:48.132Z,10.43
2019-05-20T06:10:18.603Z,9.70
2019-05-20T06:12:47.842Z,8.47
2019-05-20T06:15:17.737Z,8.87
2019-05-20T06:17:47.049Z,8.10
2019-05-20T06:20:18.626Z,7.43
2019-05-20T06:22:49.218Z,8.80
2019-05-20T06:25:18.863Z,9.30
2019-05-20T06:27:48.651Z,9.33
2019-05-20T06:30:19.425Z,9.63
2019-05-20T06:32:48.827Z,9.60
2019-05-20T06:35:18.613Z,8.03
2019-05-20T06:37:52.589Z,8.57
2019-05-20T06:40:24.222Z,9.53
2019-05-20T06:42:53.601Z,9.13
2019-05-20T06:45:23.974Z,10.13
2019-05-20T06:47:54.395Z,9.53
2019-05-20T06:50:29.614Z,10.30
2019-05-20T06:52:59.538Z,11.03
2019-05-20T06:55:29.018Z,11.03
2019-05-20T06:57:58.293Z,11.33
2019-05-20T07:00:38.227Z,9.43
2019-05-20T07:03:07.437Z,8.10
2019-05-20T07:05:37.059Z,7.73
2019-05-20T07:08:06.620Z,6.60
2019-05-20T07:10:35.991Z,6.27
2019-05-20T07:13:05.524Z,6.07
2019-05-20T07:15:35.075Z,6.13
2019-05-20T07:18:04.516Z,5.20
2019-05-20T07:20:33.700Z,4.97
2019-05-20T07:23:03.008Z,5.97
2019-05-20T07:25:32.634Z,5.50
2019-05-20T07:28:04.198Z,5.77
2019-05-20T07:30:33.472Z,6.47
2019-05-20T07:33:02.680Z,5.57
2019-05-20T07:35:31.931Z,6.17
2019-05-20T07:38:01.135Z,6.40
2019-05-20T07:40:33.183Z,6.13
2019-05-20T07:43:03.496Z,5.30
2019-05-20T07:45:35.288Z,5.93
2019-05-20T07:48:05.796Z,6.40
2019-05-20T07:50:38.463Z,6.70
2019-05-20T07:53:11.379Z,6.03
2019-05-20T07:55:47.310Z,5.93
2019-05-20T07:58:19.585Z,7.03
2019-05-20T08:00:48.788Z,7.40
2019-05-20T08:03:18.727Z,5.97
2019-05-20T08:05:50.368Z,6.30
2019-05-20T08:08:19.556Z,6.87
2019-05-20T08:10:48.837Z,7.10
2019-05-20T08:13:18.641Z,7.10
2019-05-20T08:15:47.818Z,6.53
2019-05-20T08:18:20.139Z,6.80
2019-05-20T08:20:53.897Z,6.47
2019-05-20T08:23:23.756Z,5.77
2019-05-20T08:25:53.077Z,5.00
2019-05-20T08:28:26.073Z,5.70
2019-05-20T08:30:55.878Z,5.80
2019-05-20T08:33:25.900Z,6.97
2019-05-20T08:35:55.183Z,7.00
2019-05-20T08:38:28.032Z,6.87
2019-05-20T08:40:57.624Z,6.00
2019-05-20T08:43:26.769Z,6.90
2019-05-20T08:45:57.584Z,6.50
2019-05-20T08:48:26.854Z,6.23
2019-05-20T08:50:56.321Z,6.50
2019-05-20T08:53:25.892Z,6.33
2019-05-20T08:56:05.231Z,8.47
2019-05-20T08:58:32.260Z,9.40
2019-05-20T09:01:01.539Z,9.23
2019-05-20T09:03:30.842Z,9.67
2019-05-20T09:06:00.052Z,9.87
2019-05-20T09:08:29.302Z,8.37
2019-05-20T09:11:00.668Z,9.23
2019-05-20T09:13:29.993Z,9.53
2019-05-20T09:16:00.496Z,9.30
2019-05-20T09:18:31.505Z,8.60
2019-05-20T09:21:00.797Z,8.47
2019-05-20T09:23:30.096Z,8.87
2019-05-20T09:25:59.307Z,9.37
2019-05-20T09:28:32.174Z,9.50
2019-05-20T09:31:04.310Z,9.80
2019-05-20T09:33:34.507Z,9.30
2019-05-20T09:36:04.411Z,10.07
2019-05-20T09:38:36.821Z,9.57
2019-05-20T09:41:05.044Z,9.83
2019-05-20T09:43:34.596Z,8.17
2019-05-20T09:46:08.067Z,7.23
2019-05-20T09:48:38.203Z,7.70
2019-05-20T09:51:07.490Z,9.03
2019-05-20T09:53:37.051Z,8.93
2019-05-20T09:56:07.769Z,8.87
2019-05-20T09:58:37.327Z,8.30
2019-05-20T10:01:07.303Z,7.63
2019-05-20T10:03:36.489Z,6.40
2019-05-20T10:06:05.638Z,8.20
2019-05-20T10:08:39.424Z,7.30
2019-05-20T10:11:05.863Z,7.40
2019-05-20T10:13:35.575Z,6.57
2019-05-20T10:16:08.125Z,7.10
2019-05-20T10:18:39.424Z,8.37
2019-05-20T10:21:08.794Z,8.67
2019-05-20T10:23:38.140Z,8.97
2019-05-20T10:26:07.331Z,10.20
2019-05-20T10:28:42.209Z,9.23
2019-05-20T10:31:12.494Z,8.33
2019-05-20T10:33:42.003Z,9.20
2019-05-20T10:36:13.113Z,9.33
2019-05-20T10:38:57.439Z,9.70
2019-05-20T10:41:15.707Z,10.33
2019-05-20T10:43:44.892Z,8.70
2019-05-20T10:46:14.061Z,10.13
2019-05-20T10:48:43.331Z,10.90
2019-05-20T10:51:12.832Z,10.80
2019-05-20T10:53:41.991Z,10.27
2019-05-20T10:56:13.634Z,11.07
2019-05-20T10:58:45.206Z,10.57
2019-05-20T11:01:15.220Z,11.27
2019-05-20T11:03:49.068Z,11.53
2019-05-20T11:06:18.247Z,11.03
2019-05-20T11:08:47.548Z,11.93
2019-05-20T11:11:16.688Z,11.13
2019-05-20T11:13:47.378Z,11.70
2019-05-20T11:16:17.136Z,13.30
2019-05-20T11:18:47.352Z,13.17
2019-05-20T11:21:18.786Z,12.63
2019-05-20T11:23:50.113Z,14.20
2019-05-20T11:26:20.838Z,12.60
2019-05-20T11:28:53.074Z,10.53
2019-05-20T11:31:24.810Z,12.87
2019-05-20T11:33:57.531Z,12.27
2019-05-20T11:36:26.328Z,11.63
2019-05-20T11:38:55.519Z,11.20
2019-05-20T11:41:51.244Z,10.27
2019-05-20T11:44:03.727Z,9.80
2019-05-20T11:46:35.605Z,10.70
2019-05-20T11:49:09.045Z,10.20
2019-05-20T11:51:38.251Z,11.83
2019-05-20T11:54:07.478Z,11.13
2019-05-20T11:56:37.292Z,11.87
2019-05-20T11:59:06.722Z,12.13
2019-05-20T12:01:36.359Z,12.00
2019-05-20T12:04:06.641Z,12.03
2019-05-20T12:06:36.000Z,13.43
2019-05-20T12:09:07.008Z,12.27
2019-05-20T12:11:36.251Z,13.40
2019-05-20T12:14:08.076Z,13.60
2019-05-20T12:16:37.301Z,13.23
2019-05-20T12:19:07.956Z,11.97
2019-05-20T12:21:37.197Z,11.43
2019-05-20T12:24:06.397Z,10.87
2019-05-20T12:26:35.757Z,12.77
2019-05-20T12:29:06.641Z,14.67
2019-05-20T12:31:35.871Z,13.93
2019-05-20T12:34:05.141Z,14.83
2019-05-20T12:36:34.573Z,14.77
2019-05-20T12:39:04.868Z,14.30
2019-05-20T12:41:35.665Z,14.40
2019-05-20T12:44:11.454Z,15.90
2019-05-20T12:46:35.877Z,18.70
2019-05-20T12:49:07.454Z,16.97
2019-05-20T12:51:39.208Z,16.47
2019-05-20T12:54:09.064Z,15.43
2019-05-20T12:56:38.219Z,16.07
2019-05-20T12:59:08.600Z,16.30
2019-05-20T13:01:37.772Z,17.87
2019-05-20T13:04:08.716Z,17.47
2019-05-20T13:06:38.021Z,17.23
2019-05-20T13:09:08.109Z,17.13
2019-05-20T13:11:37.304Z,16.43
2019-05-20T13:14:06.823Z,17.10
2019-05-20T13:16:36.047Z,16.10
2019-05-20T13:19:06.350Z,17.33
2019-05-20T13:21:37.784Z,17.27
2019-05-20T13:24:07.467Z,17.37
2019-05-20T13:26:36.956Z,20.03
2019-05-20T13:29:06.102Z,20.70
2019-05-20T13:31:35.277Z,20.13
2019-05-20T13:34:04.519Z,22.60
2019-05-20T13:36:33.979Z,20.07
2019-05-20T13:39:04.526Z,18.90
2019-05-20T13:41:34.080Z,21.40
2019-05-20T13:44:03.255Z,19.73
2019-05-20T13:46:33.878Z,21.40
2019-05-20T13:49:03.117Z,21.00
2019-05-20T13:51:32.734Z,26.47
2019-05-20T13:54:03.113Z,24.70
2019-05-20T13:56:32.755Z,24.13
2019-05-20T13:59:02.385Z,22.10
2019-05-20T14:01:31.991Z,23.90
2019-05-20T14:04:02.605Z,26.40
2019-05-20T14:06:31.778Z,23.90
2019-05-20T14:09:01.001Z,20.00
2019-05-20T14:11:35.446Z,20.83
2019-05-20T14:14:04.282Z,22.97
2019-05-20T14:16:33.478Z,22.20
2019-05-20T14:19:03.008Z,25.67
2019-05-20T14:21:36.381Z,19.50
2019-05-20T14:24:08.299Z,26.47
2019-05-20T14:26:37.702Z,28.13
2019-05-20T14:29:07.765Z,30.87
2019-05-20T14:31:38.187Z,29.63
2019-05-20T14:34:08.205Z,28.70
2019-05-20T14:36:40.222Z,27.10
2019-05-20T14:39:09.784Z,28.87
2019-05-20T14:41:39.041Z,25.97
2019-05-20T14:44:08.506Z,26.90
2019-05-20T14:46:37.727Z,28.70
2019-05-20T14:49:06.976Z,25.03
2019-05-20T14:51:37.653Z,26.97
2019-05-20T14:54:08.228Z,21.77
2019-05-20T14:56:39.038Z,20.70
2019-05-20T14:59:08.990Z,22.03
2019-05-20T15:01:39.144Z,19.47
2019-05-20T15:04:08.350Z,17.67
2019-05-20T15:06:39.046Z,17.73
2019-05-20T15:09:09.330Z,18.33
2019-05-20T15:11:39.047Z,19.13
2019-05-20T15:14:08.917Z,16.40
2019-05-20T15:16:38.430Z,19.67
2019-05-20T15:19:07.643Z,20.10
2019-05-20T15:21:36.808Z,20.67
2019-05-20T15:24:08.125Z,21.57
2019-05-20T15:26:37.391Z,19.83
2019-05-20T15:29:06.628Z,20.57
2019-05-20T15:31:36.175Z,21.50
2019-05-20T15:34:07.379Z,20.73
2019-05-20T15:36:41.608Z,19.80
2019-05-20T15:39:11.938Z,19.17
2019-05-20T15:41:46.273Z,20.50
2019-05-20T15:44:17.138Z,19.63
2019-05-20T15:46:46.522Z,19.87
2019-05-20T15:49:17.154Z,19.73
2019-05-20T15:51:47.881Z,20.43
2019-05-20T15:54:18.617Z,16.03
2019-05-20T15:56:47.788Z,15.63
2019-05-20T15:59:17.258Z,14.50
2019-05-20T16:01:46.443Z,14.10
2019-05-20T16:04:18.394Z,13.57
2019-05-20T16:06:49.460Z,14.10
2019-05-20T16:09:18.745Z,15.27
2019-05-20T16:11:47.928Z,13.77
2019-05-20T16:14:17.309Z,14.17
2019-05-20T16:16:46.430Z,13.13
2019-05-20T16:19:15.701Z,11.83
2019-05-20T16:21:47.967Z,10.60
2019-05-20T16:24:19.813Z,12.53
2019-05-20T16:26:50.382Z,12.53
2019-05-20T16:29:19.684Z,10.77
2019-05-20T16:31:50.683Z,12.07
2019-05-20T16:34:20.997Z,11.60
2019-05-20T16:36:52.081Z,13.53
2019-05-20T16:39:25.321Z,10.50
2019-05-20T16:41:56.772Z,12.43
2019-05-20T16:44:26.096Z,13.57
2019-05-20T16:46:55.517Z,14.23
2019-05-20T16:49:25.845Z,14.27
2019-05-20T16:51:56.577Z,14.03
2019-05-20T16:54:26.777Z,15.40
2019-05-20T16:56:55.948Z,14.63
2019-05-20T16:59:25.238Z,14.47
2019-05-20T17:01:54.494Z,15.13
2019-05-20T17:04:29.944Z,16.57
2019-05-20T17:06:59.391Z,18.63
2019-05-20T17:09:28.717Z,16.43
2019-05-20T17:12:03.198Z,20.77
2019-05-20T17:14:34.640Z,20.97
2019-05-20T17:17:05.241Z,20.17
2019-05-20T17:19:35.035Z,17.23
2019-05-20T17:22:10.364Z,16.73
2019-05-20T17:25:10.089Z,16.50
2019-05-20T17:27:39.388Z,12.93
2019-05-20T17:30:09.084Z,14.83
2019-05-20T17:32:42.150Z,13.10
2019-05-20T17:35:11.451Z,15.87
2019-05-20T17:37:42.337Z,16.70
2019-05-20T17:40:12.792Z,19.43
2019-05-20T17:42:43.652Z,20.27
2019-05-20T17:45:15.794Z,17.30
2019-05-20T17:47:47.848Z,18.73
2019-05-20T17:50:18.240Z,18.90
2019-05-20T17:52:47.425Z,18.33
2019-05-20T17:55:18.551Z,17.20
2019-05-20T17:57:48.066Z,20.00
2019-05-20T18:00:21.735Z,20.63
2019-05-20T18:02:54.507Z,22.97
2019-05-20T18:05:23.778Z,22.37
2019-05-20T18:07:53.063Z,22.13
2019-05-20T18:10:25.557Z,21.93
2019-05-20T18:12:57.118Z,21.53
2019-05-20T18:15:27.195Z,20.60
2019-05-20T18:17:57.300Z,22.90
2019-05-20T18:20:30.309Z,21.20
2019-05-20T18:22:59.569Z,21.27
2019-05-20T18:25:31.140Z,23.90
2019-05-20T18:28:00.317Z,23.67
2019-05-20T18:30:29.714Z,23.93
2019-05-20T18:32:58.959Z,23.80
2019-05-20T18:35:31.300Z,28.03
2019-05-20T18:38:02.286Z,23.40
2019-05-20T18:40:31.485Z,26.43
2019-05-20T18:43:00.981Z,29.70
2019-05-20T18:45:31.919Z,26.23
2019-05-20T18:48:03.856Z,27.47
2019-05-20T18:50:36.807Z,26.40
2019-05-20T18:53:06.011Z,27.93
2019-05-20T18:55:39.294Z,29.53
2019-05-20T18:58:08.602Z,23.90
2019-05-20T19:00:39.220Z,22.10
2019-05-20T19:03:08.536Z,19.07
2019-05-20T19:05:37.829Z,18.73
2019-05-20T19:08:10.139Z,18.50
2019-05-20T19:10:43.406Z,19.33
2019-05-20T19:13:14.647Z,19.00
2019-05-20T19:16:12.511Z,17.73
2019-05-20T19:18:41.852Z,17.17
2019-05-20T19:21:25.442Z,18.20
2019-05-20T19:24:15.872Z,19.43
2019-05-20T19:26:46.117Z,18.30
2019-05-20T19:29:41.487Z,19.70
2019-05-20T19:32:21.936Z,22.03
2019-05-20T19:34:54.280Z,21.00
2019-05-20T19:38:06.662Z,19.13
2019-05-20T19:40:38.587Z,17.50
2019-05-20T19:43:09.496Z,16.63
2019-05-20T19:45:46.562Z,17.40
2019-05-20T19:48:23.459Z,20.40
2019-05-20T19:51:07.951Z,21.50
2019-05-20T19:53:37.359Z,20.13
2019-05-20T19:56:12.598Z,18.50
2019-05-20T19:58:42.248Z,17.53
2019-05-20T20:01:14.437Z,16.53
2019-05-20T20:03:44.099Z,18.90
2019-05-20T20:06:19.133Z,15.37
2019-05-20T20:08:53.381Z,15.03
2019-05-20T20:11:23.373Z,19.50
2019-05-20T20:14:05.633Z,19.57
2019-05-20T20:16:42.789Z,19.93
2019-05-20T20:19:12.032Z,22.23
2019-05-20T20:21:42.768Z,26.43
2019-05-20T20:24:18.756Z,24.30
2019-05-20T20:26:49.645Z,21.93
2019-05-20T20:29:20.649Z,21.63
2019-05-20T20:31:51.298Z,22.77
2019-05-20T20:34:20.624Z,21.47
2019-05-20T20:36:51.308Z,17.07
2019-05-20T20:39:20.916Z,19.03
2019-05-20T20:41:50.242Z,20.67
2019-05-20T20:44:19.440Z,22.10
2019-05-20T20:46:48.709Z,20.13
2019-05-20T20:49:25.899Z,19.83
2019-05-20T20:51:58.385Z,19.33
2019-05-20T20:54:27.791Z,19.33
2019-05-20T20:56:57.028Z,17.53
2019-05-20T20:59:26.648Z,18.80
2019-05-20T21:01:59.145Z,21.40
2019-05-20T21:04:29.273Z,23.07
2019-05-20T21:06:58.584Z,23.30
2019-05-20T21:09:29.706Z,19.17
2019-05-20T21:12:02.752Z,19.73
2019-05-20T21:14:34.343Z,20.90
2019-05-20T21:17:03.628Z,23.30
2019-05-20T21:19:32.917Z,23.57
2019-05-20T21:22:02.707Z,24.60
2019-05-20T21:24:34.907Z,16.83
2019-05-20T21:27:05.014Z,16.67
2019-05-20T21:29:34.345Z,19.30
2019-05-20T21:32:05.123Z,14.33
2019-05-20T21:34:35.384Z,15.17
2019-05-20T21:37:04.532Z,26.10
2019-05-20T21:39:34.226Z,25.87
2019-05-20T21:42:06.573Z,26.67
2019-05-20T21:44:36.916Z,27.77
2019-05-20T21:47:06.130Z,25.93
2019-05-20T21:49:37.111Z,28.73
2019-05-20T21:52:07.506Z,27.80
2019-05-20T21:54:37.214Z,28.60
2019-05-20T21:57:06.574Z,24.50
2019-05-20T21:59:43.493Z,27.17
2019-05-20T22:02:15.494Z,30.60
2019-05-20T22:04:45.642Z,29.57
2019-05-20T22:07:15.996Z,31.23
2019-05-20T22:09:46.774Z,24.27
2019-05-20T22:12:16.267Z,22.97
2019-05-20T22:14:45.716Z,25.83
2019-05-20T22:17:15.410Z,25.17
2019-05-20T22:19:45.164Z,23.93
2019-05-20T22:22:25.277Z,21.47
2019-05-20T22:24:57.455Z,18.73
2019-05-20T22:27:28.487Z,19.33
2019-05-20T22:29:57.962Z,21.07
2019-05-20T22:32:30.056Z,15.13
2019-05-20T22:35:02.179Z,16.37
2019-05-20T22:37:31.667Z,15.53
2019-05-20T22:40:12.233Z,19.73
2019-05-20T22:42:43.148Z,19.97
2019-05-20T22:45:12.807Z,19.17
2019-05-20T22:47:42.291Z,20.37
2019-05-20T22:50:12.461Z,19.93
2019-05-20T22:52:41.894Z,20.77
2019-05-20T22:55:12.648Z,21.90
2019-05-20T22:57:42.666Z,23.40
2019-05-20T23:00:12.281Z,22.40
2019-05-20T23:02:41.995Z,20.53
2019-05-20T23:05:12.661Z,24.13
2019-05-20T23:07:42.069Z,17.43
2019-05-20T23:10:14.511Z,9.63
2019-05-20T23:12:43.896Z,14.53
2019-05-20T23:15:17.795Z,13.07
2019-05-20T23:17:48.049Z,13.67
2019-05-20T23:20:17.866Z,12.47
2019-05-20T23:22:50.138Z,12.53
2019-05-20T23:25:23.410Z,14.10
2019-05-20T23:27:54.531Z,13.50
2019-05-20T23:30:25.915Z,14.23
2019-05-20T23:32:55.515Z,14.43
2019-05-20T23:35:25.096Z,14.87
2019-05-20T23:37:57.838Z,17.03
2019-05-20T23:40:29.037Z,16.20
2019-05-20T23:42:58.411Z,10.60
2019-05-20T23:45:32.089Z,12.03
2019-05-20T23:48:12.335Z,13.67
2019-05-20T23:50:43.209Z,15.73
2019-05-20T23:53:13.063Z,12.30
2019-05-20T23:55:42.515Z,12.20
2019-05-20T23:58:24.341Z,14.60
